KGTF/GTF METAR and TAF weather

Enter ICAO airport designator
Station Type Date Time Source
KGTF METAR 2020/07/15 06:53 UTC NOAA

KGTF 150653Z 20008KT 10SM CLR 10/02 A3006 RMK AO2 SLP163 T01000017 402560061 $


Station Type Date Time Source
KGTF Decoded METAR 2020/07/15 06:53 UTC NOAA

GREAT FALLS INTERNATIONAL, MT, United States (KGTF) 47-28N 111-23W 1119M
Jul 15, 2020 - 02:53 AM EDT / 2020.07.15 0653 UTC
Wind: from the SSW (200 degrees) at 9 MPH (8 KT):0
Visibility: 10 mile(s):0
Sky conditions: clear
Temperature: 50.0 F (10.0 C)
Dew Point: 35.1 F (1.7 C)
Relative Humidity: 56%
Pressure (altimeter): 30.06 in. Hg (1017 hPa)
ob: KGTF 150653Z 20008KT 10SM CLR 10/02 A3006 RMK AO2 SLP163 T01000017 402560061
cycle: 7

Station Type Date Time Source
KGTF TAF 2020/07/15 06:22 UTC NOAA

TAF KGTF 150520Z 1506/1606 26007KT P6SM FEW250
FM151100 22010G18KT P6SM SCT150
FM151800 26013G20KT P6SM SCT070

Example: see airport list